sensor_id;sensor_type;location;lat;lon;timestamp;P1;durP1;ratioP1;P2;durP2;ratioP2
18259;SDS011;9256;52.236;5.712;2024-03-23T00:53:06;34.25;;;9.15;;
18259;SDS011;9256;52.236;5.712;2024-03-23T00:55:33;39.92;;;9.52;;
18259;SDS011;9256;52.236;5.712;2024-03-23T00:57:59;34.08;;;8.70;;
18259;SDS011;9256;52.236;5.712;2024-03-23T01:00:26;36.63;;;8.93;;
18259;SDS011;9256;52.236;5.712;2024-03-23T01:02:52;35.95;;;8.25;;
18259;SDS011;9256;52.236;5.712;2024-03-23T01:05:19;37.38;;;8.98;;
18259;SDS011;9256;52.236;5.712;2024-03-23T01:07:45;34.03;;;8.82;;
18259;SDS011;9256;52.236;5.712;2024-03-23T01:10:13;41.50;;;8.70;;
18259;SDS011;9256;52.236;5.712;2024-03-23T01:12:39;45.05;;;9.48;;
18259;SDS011;9256;52.236;5.712;2024-03-23T01:15:06;28.30;;;7.63;;
18259;SDS011;9256;52.236;5.712;2024-03-23T01:17:32;37.63;;;9.73;;
18259;SDS011;9256;52.236;5.712;2024-03-23T01:19:59;39.10;;;9.15;;
18259;SDS011;9256;52.236;5.712;2024-03-23T01:22:25;36.30;;;7.90;;
18259;SDS011;9256;52.236;5.712;2024-03-23T01:24:52;33.47;;;8.05;;
18259;SDS011;9256;52.236;5.712;2024-03-23T01:27:19;34.13;;;8.25;;
18259;SDS011;9256;52.236;5.712;2024-03-23T01:29:46;30.05;;;7.78;;
18259;SDS011;9256;52.236;5.712;2024-03-23T01:32:12;33.28;;;8.50;;
18259;SDS011;9256;52.236;5.712;2024-03-23T01:34:39;41.80;;;10.50;;
18259;SDS011;9256;52.236;5.712;2024-03-23T01:37:05;28.05;;;8.50;;
18259;SDS011;9256;52.236;5.712;2024-03-23T01:39:32;33.55;;;8.07;;
18259;SDS011;9256;52.236;5.712;2024-03-23T01:41:58;32.58;;;8.40;;
18259;SDS011;9256;52.236;5.712;2024-03-23T01:44:26;31.88;;;8.40;;
18259;SDS011;9256;52.236;5.712;2024-03-23T01:46:52;34.15;;;7.85;;
18259;SDS011;9256;52.236;5.712;2024-03-23T01:49:19;31.23;;;7.70;;
18259;SDS011;9256;52.236;5.712;2024-03-23T01:51:45;33.42;;;9.55;;
18259;SDS011;9256;52.236;5.712;2024-03-23T01:54:12;29.02;;;8.10;;
18259;SDS011;9256;52.236;5.712;2024-03-23T01:56:38;28.60;;;8.07;;
18259;SDS011;9256;52.236;5.712;2024-03-23T01:59:05;27.73;;;8.02;;
18259;SDS011;9256;52.236;5.712;2024-03-23T02:01:33;31.75;;;8.20;;
18259;SDS011;9256;52.236;5.712;2024-03-23T02:04:01;29.50;;;8.07;;
18259;SDS011;9256;52.236;5.712;2024-03-23T02:06:27;29.60;;;7.50;;
18259;SDS011;9256;52.236;5.712;2024-03-23T02:08:55;27.67;;;7.32;;
18259;SDS011;9256;52.236;5.712;2024-03-23T02:11:21;23.40;;;7.07;;
18259;SDS011;9256;52.236;5.712;2024-03-23T02:13:48;26.70;;;6.57;;
18259;SDS011;9256;52.236;5.712;2024-03-23T02:16:14;25.63;;;6.90;;
18259;SDS011;9256;52.236;5.712;2024-03-23T02:18:42;30.15;;;8.85;;
18259;SDS011;9256;52.236;5.712;2024-03-23T02:21:08;25.00;;;7.65;;
18259;SDS011;9256;52.236;5.712;2024-03-23T02:23:36;23.33;;;6.65;;
18259;SDS011;9256;52.236;5.712;2024-03-23T02:26:02;25.13;;;6.57;;
18259;SDS011;9256;52.236;5.712;2024-03-23T02:28:29;23.95;;;7.05;;
18259;SDS011;9256;52.236;5.712;2024-03-23T02:30:57;22.95;;;6.68;;
18259;SDS011;9256;52.236;5.712;2024-03-23T02:33:26;24.50;;;6.45;;
18259;SDS011;9256;52.236;5.712;2024-03-23T02:35:55;23.48;;;6.05;;
18259;SDS011;9256;52.236;5.712;2024-03-23T02:38:22;23.55;;;6.90;;
18259;SDS011;9256;52.236;5.712;2024-03-23T02:40:49;21.20;;;6.53;;
18259;SDS011;9256;52.236;5.712;2024-03-23T02:43:16;26.48;;;6.95;;
18259;SDS011;9256;52.236;5.712;2024-03-23T02:45:42;21.77;;;6.70;;
18259;SDS011;9256;52.236;5.712;2024-03-23T02:48:09;19.40;;;6.95;;
18259;SDS011;9256;52.236;5.712;2024-03-23T02:50:36;20.83;;;6.90;;
18259;SDS011;9256;52.236;5.712;2024-03-23T02:53:03;20.43;;;7.20;;
18259;SDS011;9256;52.236;5.712;2024-03-23T02:55:29;20.25;;;6.47;;
18259;SDS011;9256;52.236;5.712;2024-03-23T02:57:57;18.55;;;5.85;;
18259;SDS011;9256;52.236;5.712;2024-03-23T03:00:26;15.93;;;5.83;;
18259;SDS011;9256;52.236;5.712;2024-03-23T03:02:54;25.20;;;6.78;;
18259;SDS011;9256;52.236;5.712;2024-03-23T03:05:20;26.77;;;7.53;;
18259;SDS011;9256;52.236;5.712;2024-03-23T03:07:47;30.57;;;7.80;;
18259;SDS011;9256;52.236;5.712;2024-03-23T03:10:13;20.57;;;7.13;;
18259;SDS011;9256;52.236;5.712;2024-03-23T03:12:41;26.47;;;7.30;;
18259;SDS011;9256;52.236;5.712;2024-03-23T03:15:10;25.50;;;7.27;;
18259;SDS011;9256;52.236;5.712;2024-03-23T03:17:37;35.83;;;8.43;;
18259;SDS011;9256;52.236;5.712;2024-03-23T03:20:04;33.97;;;8.77;;
18259;SDS011;9256;52.236;5.712;2024-03-23T03:22:31;29.60;;;8.73;;
18259;SDS011;9256;52.236;5.712;2024-03-23T03:24:58;25.45;;;9.00;;
18259;SDS011;9256;52.236;5.712;2024-03-23T03:27:25;33.80;;;8.87;;
18259;SDS011;9256;52.236;5.712;2024-03-23T03:29:52;31.13;;;9.40;;
18259;SDS011;9256;52.236;5.712;2024-03-23T03:32:22;29.13;;;9.10;;
18259;SDS011;9256;52.236;5.712;2024-03-23T03:34:49;39.80;;;9.60;;
18259;SDS011;9256;52.236;5.712;2024-03-23T03:37:15;34.30;;;9.68;;
18259;SDS011;9256;52.236;5.712;2024-03-23T03:39:42;34.70;;;9.03;;
18259;SDS011;9256;52.236;5.712;2024-03-23T03:42:08;34.70;;;9.27;;
18259;SDS011;9256;52.236;5.712;2024-03-23T03:44:35;35.58;;;9.00;;
18259;SDS011;9256;52.236;5.712;2024-03-23T03:47:01;27.43;;;9.00;;
18259;SDS011;9256;52.236;5.712;2024-03-23T03:49:31;36.17;;;9.37;;
18259;SDS011;9256;52.236;5.712;2024-03-23T03:51:57;30.47;;;8.23;;
18259;SDS011;9256;52.236;5.712;2024-03-23T03:54:26;31.20;;;8.48;;
18259;SDS011;9256;52.236;5.712;2024-03-23T03:56:52;27.10;;;8.10;;
18259;SDS011;9256;52.236;5.712;2024-03-23T03:59:19;34.30;;;8.63;;
18259;SDS011;9256;52.236;5.712;2024-03-23T04:01:45;29.23;;;8.30;;
18259;SDS011;9256;52.236;5.712;2024-03-23T04:04:12;28.90;;;7.73;;
18259;SDS011;9256;52.236;5.712;2024-03-23T04:06:40;28.83;;;8.33;;
18259;SDS011;9256;52.236;5.712;2024-03-23T04:09:07;28.13;;;8.90;;
18259;SDS011;9256;52.236;5.712;2024-03-23T04:11:33;26.38;;;7.95;;
18259;SDS011;9256;52.236;5.712;2024-03-23T04:14:00;26.33;;;7.63;;
18259;SDS011;9256;52.236;5.712;2024-03-23T04:16:26;23.80;;;7.57;;
18259;SDS011;9256;52.236;5.712;2024-03-23T04:18:54;30.17;;;8.00;;
18259;SDS011;9256;52.236;5.712;2024-03-23T04:21:20;35.40;;;10.88;;
18259;SDS011;9256;52.236;5.712;2024-03-23T04:23:49;34.22;;;8.05;;
18259;SDS011;9256;52.236;5.712;2024-03-23T04:26:15;27.30;;;8.20;;
18259;SDS011;9256;52.236;5.712;2024-03-23T04:28:42;21.70;;;7.80;;
18259;SDS011;9256;52.236;5.712;2024-03-23T04:31:08;29.33;;;7.88;;
18259;SDS011;9256;52.236;5.712;2024-03-23T04:33:35;23.13;;;6.93;;
18259;SDS011;9256;52.236;5.712;2024-03-23T04:36:01;30.63;;;7.40;;
18259;SDS011;9256;52.236;5.712;2024-03-23T04:38:29;35.42;;;9.68;;
18259;SDS011;9256;52.236;5.712;2024-03-23T04:40:57;26.40;;;7.90;;
18259;SDS011;9256;52.236;5.712;2024-03-23T04:43:25;23.05;;;7.40;;
18259;SDS011;9256;52.236;5.712;2024-03-23T04:45:52;27.53;;;7.13;;
18259;SDS011;9256;52.236;5.712;2024-03-23T04:48:20;29.93;;;6.67;;
18259;SDS011;9256;52.236;5.712;2024-03-23T04:50:47;32.57;;;7.07;;
18259;SDS011;9256;52.236;5.712;2024-03-23T04:53:14;31.40;;;7.00;;
18259;SDS011;9256;52.236;5.712;2024-03-23T04:55:41;22.90;;;6.43;;
18259;SDS011;9256;52.236;5.712;2024-03-23T04:58:09;22.47;;;6.67;;
18259;SDS011;9256;52.236;5.712;2024-03-23T05:00:35;23.40;;;6.90;;
18259;SDS011;9256;52.236;5.712;2024-03-23T05:03:02;26.30;;;6.67;;
18259;SDS011;9256;52.236;5.712;2024-03-23T05:05:29;29.47;;;6.90;;
18259;SDS011;9256;52.236;5.712;2024-03-23T05:07:56;29.97;;;7.20;;
18259;SDS011;9256;52.236;5.712;2024-03-23T05:10:22;21.77;;;7.13;;
18259;SDS011;9256;52.236;5.712;2024-03-23T05:12:49;34.27;;;8.13;;
18259;SDS011;9256;52.236;5.712;2024-03-23T05:15:18;28.47;;;8.13;;
18259;SDS011;9256;52.236;5.712;2024-03-23T05:17:44;30.83;;;7.83;;
18259;SDS011;9256;52.236;5.712;2024-03-23T05:20:11;30.67;;;7.33;;
18259;SDS011;9256;52.236;5.712;2024-03-23T05:22:37;27.17;;;7.20;;
18259;SDS011;9256;52.236;5.712;2024-03-23T05:25:04;25.30;;;6.43;;
18259;SDS011;9256;52.236;5.712;2024-03-23T05:27:31;23.47;;;5.87;;
18259;SDS011;9256;52.236;5.712;2024-03-23T05:29:58;25.77;;;5.40;;
18259;SDS011;9256;52.236;5.712;2024-03-23T05:32:25;25.53;;;5.30;;
18259;SDS011;9256;52.236;5.712;2024-03-23T05:34:53;17.80;;;4.77;;
18259;SDS011;9256;52.236;5.712;2024-03-23T05:37:21;22.13;;;5.10;;
18259;SDS011;9256;52.236;5.712;2024-03-23T05:39:48;17.73;;;4.33;;
18259;SDS011;9256;52.236;5.712;2024-03-23T05:42:15;22.60;;;4.80;;
18259;SDS011;9256;52.236;5.712;2024-03-23T05:44:43;24.60;;;4.90;;
18259;SDS011;9256;52.236;5.712;2024-03-23T05:47:09;21.53;;;4.67;;
18259;SDS011;9256;52.236;5.712;2024-03-23T05:49:39;30.10;;;5.73;;
18259;SDS011;9256;52.236;5.712;2024-03-23T05:52:07;30.73;;;5.50;;
18259;SDS011;9256;52.236;5.712;2024-03-23T05:54:34;19.70;;;5.50;;
18259;SDS011;9256;52.236;5.712;2024-03-23T05:57:00;25.50;;;5.77;;
18259;SDS011;9256;52.236;5.712;2024-03-23T05:59:27;23.27;;;5.83;;
18259;SDS011;9256;52.236;5.712;2024-03-23T06:01:53;23.90;;;5.47;;
18259;SDS011;9256;52.236;5.712;2024-03-23T06:04:20;21.93;;;6.10;;
18259;SDS011;9256;52.236;5.712;2024-03-23T06:06:47;28.27;;;5.67;;
18259;SDS011;9256;52.236;5.712;2024-03-23T06:09:14;31.45;;;7.80;;
18259;SDS011;9256;52.236;5.712;2024-03-23T06:11:40;30.87;;;6.50;;
18259;SDS011;9256;52.236;5.712;2024-03-23T06:14:07;34.33;;;5.90;;
18259;SDS011;9256;52.236;5.712;2024-03-23T06:16:33;26.93;;;5.43;;
18259;SDS011;9256;52.236;5.712;2024-03-23T06:19:00;18.53;;;5.13;;
18259;SDS011;9256;52.236;5.712;2024-03-23T06:21:28;27.87;;;5.27;;
18259;SDS011;9256;52.236;5.712;2024-03-23T06:23:57;27.50;;;5.83;;
18259;SDS011;9256;52.236;5.712;2024-03-23T06:26:23;25.13;;;5.13;;
18259;SDS011;9256;52.236;5.712;2024-03-23T06:28:49;24.00;;;4.70;;
18259;SDS011;9256;52.236;5.712;2024-03-23T06:31:15;17.63;;;4.97;;
18259;SDS011;9256;52.236;5.712;2024-03-23T06:33:43;34.20;;;5.33;;
18259;SDS011;9256;52.236;5.712;2024-03-23T06:36:09;24.27;;;5.00;;
18259;SDS011;9256;52.236;5.712;2024-03-23T06:38:36;25.07;;;4.60;;
18259;SDS011;9256;52.236;5.712;2024-03-23T06:41:04;24.97;;;4.50;;
18259;SDS011;9256;52.236;5.712;2024-03-23T06:43:31;17.07;;;4.07;;
18259;SDS011;9256;52.236;5.712;2024-03-23T06:45:57;23.87;;;4.20;;
18259;SDS011;9256;52.236;5.712;2024-03-23T06:48:24;23.23;;;4.20;;
18259;SDS011;9256;52.236;5.712;2024-03-23T06:50:54;20.47;;;4.30;;
18259;SDS011;9256;52.236;5.712;2024-03-23T06:53:22;21.50;;;4.20;;
18259;SDS011;9256;52.236;5.712;2024-03-23T06:55:49;27.00;;;5.40;;
18259;SDS011;9256;52.236;5.712;2024-03-23T06:58:19;17.37;;;4.17;;
18259;SDS011;9256;52.236;5.712;2024-03-23T07:00:46;25.77;;;3.97;;
18259;SDS011;9256;52.236;5.712;2024-03-23T07:03:16;15.90;;;4.23;;
18259;SDS011;9256;52.236;5.712;2024-03-23T07:05:42;15.52;;;3.85;;
18259;SDS011;9256;52.236;5.712;2024-03-23T07:08:11;20.97;;;3.67;;
18259;SDS011;9256;52.236;5.712;2024-03-23T07:10:39;19.10;;;3.70;;
18259;SDS011;9256;52.236;5.712;2024-03-23T07:13:06;26.73;;;4.13;;
18259;SDS011;9256;52.236;5.712;2024-03-23T07:15:33;21.60;;;4.30;;
18259;SDS011;9256;52.236;5.712;2024-03-23T07:18:00;19.50;;;3.80;;
18259;SDS011;9256;52.236;5.712;2024-03-23T07:20:26;18.00;;;3.80;;
18259;SDS011;9256;52.236;5.712;2024-03-23T07:22:55;27.07;;;4.40;;
18259;SDS011;9256;52.236;5.712;2024-03-23T07:25:21;14.23;;;3.93;;
18259;SDS011;9256;52.236;5.712;2024-03-23T07:27:50;27.03;;;4.10;;
18259;SDS011;9256;52.236;5.712;2024-03-23T07:30:16;22.20;;;3.90;;
18259;SDS011;9256;52.236;5.712;2024-03-23T07:32:45;17.08;;;3.83;;
18259;SDS011;9256;52.236;5.712;2024-03-23T07:35:11;30.75;;;4.75;;
18259;SDS011;9256;52.236;5.712;2024-03-23T07:37:38;19.20;;;4.30;;
18259;SDS011;9256;52.236;5.712;2024-03-23T07:40:04;21.90;;;4.50;;
18259;SDS011;9256;52.236;5.712;2024-03-23T07:42:32;21.50;;;4.53;;
18259;SDS011;9256;52.236;5.712;2024-03-23T07:44:58;21.98;;;4.97;;
18259;SDS011;9256;52.236;5.712;2024-03-23T07:47:25;16.05;;;4.93;;
18259;SDS011;9256;52.236;5.712;2024-03-23T07:49:52;24.58;;;5.07;;
18259;SDS011;9256;52.236;5.712;2024-03-23T07:52:19;20.00;;;5.32;;
18259;SDS011;9256;52.236;5.712;2024-03-23T07:54:46;24.98;;;5.47;;
18259;SDS011;9256;52.236;5.712;2024-03-23T07:57:13;19.17;;;4.90;;
18259;SDS011;9256;52.236;5.712;2024-03-23T07:59:39;19.85;;;4.78;;
18259;SDS011;9256;52.236;5.712;2024-03-23T08:02:06;22.33;;;5.50;;
18259;SDS011;9256;52.236;5.712;2024-03-23T08:04:32;15.82;;;4.53;;
18259;SDS011;9256;52.236;5.712;2024-03-23T08:07:00;19.63;;;4.43;;
18259;SDS011;9256;52.236;5.712;2024-03-23T08:09:26;14.25;;;4.47;;
18259;SDS011;9256;52.236;5.712;2024-03-23T08:11:53;17.92;;;4.25;;
18259;SDS011;9256;52.236;5.712;2024-03-23T08:14:19;15.85;;;3.95;;
18259;SDS011;9256;52.236;5.712;2024-03-23T08:16:46;15.57;;;3.67;;
18259;SDS011;9256;52.236;5.712;2024-03-23T08:19:14;21.27;;;3.60;;
18259;SDS011;9256;52.236;5.712;2024-03-23T08:21:41;16.40;;;2.90;;
18259;SDS011;9256;52.236;5.712;2024-03-23T08:24:08;17.17;;;2.95;;
18259;SDS011;9256;52.236;5.712;2024-03-23T08:26:35;17.25;;;2.88;;
18259;SDS011;9256;52.236;5.712;2024-03-23T08:29:02;12.80;;;2.25;;
18259;SDS011;9256;52.236;5.712;2024-03-23T08:31:29;9.07;;;2.20;;
18259;SDS011;9256;52.236;5.712;2024-03-23T08:33:55;12.25;;;2.00;;
18259;SDS011;9256;52.236;5.712;2024-03-23T08:36:22;13.75;;;2.35;;
18259;SDS011;9256;52.236;5.712;2024-03-23T08:38:49;11.80;;;2.20;;
18259;SDS011;9256;52.236;5.712;2024-03-23T08:41:20;10.18;;;2.20;;
18259;SDS011;9256;52.236;5.712;2024-03-23T08:43:46;8.50;;;1.98;;
18259;SDS011;9256;52.236;5.712;2024-03-23T08:46:13;14.38;;;2.22;;
18259;SDS011;9256;52.236;5.712;2024-03-23T08:48:41;9.38;;;2.05;;
18259;SDS011;9256;52.236;5.712;2024-03-23T08:51:10;11.27;;;2.15;;
18259;SDS011;9256;52.236;5.712;2024-03-23T08:53:38;11.85;;;2.10;;
18259;SDS011;9256;52.236;5.712;2024-03-23T08:56:05;11.68;;;2.03;;
18259;SDS011;9256;52.236;5.712;2024-03-23T08:58:33;14.75;;;2.15;;
18259;SDS011;9256;52.236;5.712;2024-03-23T09:01:04;8.98;;;1.95;;
18259;SDS011;9256;52.236;5.712;2024-03-23T09:03:32;13.70;;;2.08;;
18259;SDS011;9256;52.236;5.712;2024-03-23T09:05:59;9.50;;;1.70;;
18259;SDS011;9256;52.236;5.712;2024-03-23T09:08:25;9.27;;;1.55;;
18259;SDS011;9256;52.236;5.712;2024-03-23T09:10:52;14.60;;;1.70;;
18259;SDS011;9256;52.236;5.712;2024-03-23T09:13:18;12.93;;;2.00;;
18259;SDS011;9256;52.236;5.712;2024-03-23T09:15:49;13.18;;;1.88;;
18259;SDS011;9256;52.236;5.712;2024-03-23T09:18:16;10.10;;;1.50;;
18259;SDS011;9256;52.236;5.712;2024-03-23T09:20:43;11.18;;;1.85;;
18259;SDS011;9256;52.236;5.712;2024-03-23T09:23:09;7.88;;;1.92;;
18259;SDS011;9256;52.236;5.712;2024-03-23T09:25:36;10.00;;;1.90;;
18259;SDS011;9256;52.236;5.712;2024-03-23T09:28:03;14.23;;;2.08;;
18259;SDS011;9256;52.236;5.712;2024-03-23T09:30:34;10.35;;;1.50;;
18259;SDS011;9256;52.236;5.712;2024-03-23T09:33:02;14.38;;;1.80;;
18259;SDS011;9256;52.236;5.712;2024-03-23T09:35:32;7.20;;;1.20;;
18259;SDS011;9256;52.236;5.712;2024-03-23T09:38:01;11.30;;;1.23;;
18259;SDS011;9256;52.236;5.712;2024-03-23T09:40:28;8.90;;;1.60;;
18259;SDS011;9256;52.236;5.712;2024-03-23T09:42:54;9.85;;;1.27;;
18259;SDS011;9256;52.236;5.712;2024-03-23T09:45:21;9.10;;;1.42;;
18259;SDS011;9256;52.236;5.712;2024-03-23T09:47:52;7.07;;;1.30;;
18259;SDS011;9256;52.236;5.712;2024-03-23T09:50:23;9.13;;;1.15;;
18259;SDS011;9256;52.236;5.712;2024-03-23T09:52:49;6.03;;;1.10;;
18259;SDS011;9256;52.236;5.712;2024-03-23T09:55:16;8.27;;;1.20;;
18259;SDS011;9256;52.236;5.712;2024-03-23T09:57:42;6.63;;;1.10;;
18259;SDS011;9256;52.236;5.712;2024-03-23T10:00:11;7.07;;;1.30;;
18259;SDS011;9256;52.236;5.712;2024-03-23T10:02:38;8.27;;;1.70;;
18259;SDS011;9256;52.236;5.712;2024-03-23T10:05:06;6.80;;;1.30;;
18259;SDS011;9256;52.236;5.712;2024-03-23T10:07:47;7.57;;;1.27;;
18259;SDS011;9256;52.236;5.712;2024-03-23T10:10:15;8.93;;;1.30;;
18259;SDS011;9256;52.236;5.712;2024-03-23T10:12:46;11.25;;;1.48;;
18259;SDS011;9256;52.236;5.712;2024-03-23T10:15:18;8.80;;;1.38;;
18259;SDS011;9256;52.236;5.712;2024-03-23T10:17:47;8.18;;;1.40;;
18259;SDS011;9256;52.236;5.712;2024-03-23T10:20:15;9.65;;;1.77;;
18259;SDS011;9256;52.236;5.712;2024-03-23T10:22:48;8.77;;;1.77;;
18259;SDS011;9256;52.236;5.712;2024-03-23T10:25:15;14.13;;;1.65;;
18259;SDS011;9256;52.236;5.712;2024-03-23T10:27:55;15.45;;;1.38;;
18259;SDS011;9256;52.236;5.712;2024-03-23T10:30:25;7.88;;;1.30;;
18259;SDS011;9256;52.236;5.712;2024-03-23T10:32:53;14.25;;;1.50;;
18259;SDS011;9256;52.236;5.712;2024-03-23T10:35:34;8.38;;;1.50;;
18259;SDS011;9256;52.236;5.712;2024-03-23T10:38:00;9.93;;;1.45;;
18259;SDS011;9256;52.236;5.712;2024-03-23T10:40:28;11.43;;;1.73;;
18259;SDS011;9256;52.236;5.712;2024-03-23T10:42:55;7.80;;;1.40;;
18259;SDS011;9256;52.236;5.712;2024-03-23T10:45:25;10.32;;;1.50;;
18259;SDS011;9256;52.236;5.712;2024-03-23T10:47:51;5.28;;;1.05;;
18259;SDS011;9256;52.236;5.712;2024-03-23T10:50:18;11.45;;;1.25;;
18259;SDS011;9256;52.236;5.712;2024-03-23T10:52:46;9.85;;;1.30;;
18259;SDS011;9256;52.236;5.712;2024-03-23T10:55:14;8.82;;;1.20;;
18259;SDS011;9256;52.236;5.712;2024-03-23T10:57:44;5.90;;;1.40;;
18259;SDS011;9256;52.236;5.712;2024-03-23T11:00:18;13.32;;;1.40;;
18259;SDS011;9256;52.236;5.712;2024-03-23T11:02:46;10.55;;;1.30;;
18259;SDS011;9256;52.236;5.712;2024-03-23T11:05:29;9.65;;;1.48;;
18259;SDS011;9256;52.236;5.712;2024-03-23T11:07:57;10.38;;;1.60;;
18259;SDS011;9256;52.236;5.712;2024-03-23T11:10:25;10.30;;;1.70;;
18259;SDS011;9256;52.236;5.712;2024-03-23T11:12:52;8.05;;;1.35;;
18259;SDS011;9256;52.236;5.712;2024-03-23T11:15:19;8.45;;;1.10;;
18259;SDS011;9256;52.236;5.712;2024-03-23T11:17:57;9.13;;;1.25;;
18259;SDS011;9256;52.236;5.712;2024-03-23T11:20:31;7.57;;;1.20;;
18259;SDS011;9256;52.236;5.712;2024-03-23T11:22:58;7.63;;;1.20;;
18259;SDS011;9256;52.236;5.712;2024-03-23T11:25:26;6.63;;;0.90;;
18259;SDS011;9256;52.236;5.712;2024-03-23T11:27:53;10.55;;;1.20;;
18259;SDS011;9256;52.236;5.712;2024-03-23T11:30:22;8.60;;;1.10;;
18259;SDS011;9256;52.236;5.712;2024-03-23T11:32:49;7.57;;;1.42;;
18259;SDS011;9256;52.236;5.712;2024-03-23T11:35:26;10.55;;;1.50;;
18259;SDS011;9256;52.236;5.712;2024-03-23T11:38:04;11.60;;;1.83;;
18259;SDS011;9256;52.236;5.712;2024-03-23T11:40:35;9.35;;;1.45;;
18259;SDS011;9256;52.236;5.712;2024-03-23T11:43:02;7.75;;;0.93;;
18259;SDS011;9256;52.236;5.712;2024-03-23T11:45:34;8.32;;;1.20;;
18259;SDS011;9256;52.236;5.712;2024-03-23T11:48:02;5.40;;;0.90;;
18259;SDS011;9256;52.236;5.712;2024-03-23T11:50:30;9.02;;;1.35;;
18259;SDS011;9256;52.236;5.712;2024-03-23T11:53:11;9.23;;;1.27;;
18259;SDS011;9256;52.236;5.712;2024-03-23T11:55:43;7.53;;;1.10;;
18259;SDS011;9256;52.236;5.712;2024-03-23T11:58:10;9.57;;;1.23;;
18259;SDS011;9256;52.236;5.712;2024-03-23T12:00:38;10.45;;;1.67;;
18259;SDS011;9256;52.236;5.712;2024-03-23T12:03:04;12.02;;;1.42;;
18259;SDS011;9256;52.236;5.712;2024-03-23T12:05:31;10.85;;;1.50;;
18259;SDS011;9256;52.236;5.712;2024-03-23T12:08:18;7.72;;;1.30;;
18259;SDS011;9256;52.236;5.712;2024-03-23T12:10:47;11.07;;;1.20;;
18259;SDS011;9256;52.236;5.712;2024-03-23T12:13:15;11.38;;;1.30;;
18259;SDS011;9256;52.236;5.712;2024-03-23T12:15:43;5.22;;;0.95;;
18259;SDS011;9256;52.236;5.712;2024-03-23T12:18:10;8.43;;;1.35;;
18259;SDS011;9256;52.236;5.712;2024-03-23T12:20:37;5.28;;;1.00;;
18259;SDS011;9256;52.236;5.712;2024-03-23T12:23:07;7.80;;;1.10;;
18259;SDS011;9256;52.236;5.712;2024-03-23T12:25:40;5.95;;;1.25;;
18259;SDS011;9256;52.236;5.712;2024-03-23T12:28:06;7.22;;;1.33;;
18259;SDS011;9256;52.236;5.712;2024-03-23T12:30:34;10.48;;;1.00;;
18259;SDS011;9256;52.236;5.712;2024-03-23T12:33:01;5.95;;;0.85;;
18259;SDS011;9256;52.236;5.712;2024-03-23T12:35:29;6.43;;;1.13;;
18259;SDS011;9256;52.236;5.712;2024-03-23T12:37:55;4.40;;;0.95;;
18259;SDS011;9256;52.236;5.712;2024-03-23T12:40:24;5.53;;;1.10;;
18259;SDS011;9256;52.236;5.712;2024-03-23T12:42:51;4.13;;;0.85;;
18259;SDS011;9256;52.236;5.712;2024-03-23T12:45:18;4.63;;;0.82;;
18259;SDS011;9256;52.236;5.712;2024-03-23T12:47:46;7.10;;;1.33;;
18259;SDS011;9256;52.236;5.712;2024-03-23T12:50:19;6.70;;;1.40;;
18259;SDS011;9256;52.236;5.712;2024-03-23T12:52:48;11.32;;;1.50;;
18259;SDS011;9256;52.236;5.712;2024-03-23T12:55:15;8.15;;;1.30;;
18259;SDS011;9256;52.236;5.712;2024-03-23T12:57:41;6.72;;;1.00;;
18259;SDS011;9256;52.236;5.712;2024-03-23T13:00:10;7.80;;;1.08;;
18259;SDS011;9256;52.236;5.712;2024-03-23T13:02:36;6.65;;;1.10;;
18259;SDS011;9256;52.236;5.712;2024-03-23T13:05:04;14.10;;;1.30;;
18259;SDS011;9256;52.236;5.712;2024-03-23T13:07:30;6.00;;;1.10;;
18259;SDS011;9256;52.236;5.712;2024-03-23T13:10:00;8.00;;;1.00;;
18259;SDS011;9256;52.236;5.712;2024-03-23T13:12:27;8.68;;;1.40;;
18259;SDS011;9256;52.236;5.712;2024-03-23T13:14:54;6.57;;;0.90;;
18259;SDS011;9256;52.236;5.712;2024-03-23T13:17:21;7.65;;;0.90;;
18259;SDS011;9256;52.236;5.712;2024-03-23T13:19:48;8.68;;;1.10;;
18259;SDS011;9256;52.236;5.712;2024-03-23T13:22:14;7.63;;;0.80;;
18259;SDS011;9256;52.236;5.712;2024-03-23T13:24:41;7.50;;;0.88;;
18259;SDS011;9256;52.236;5.712;2024-03-23T13:27:07;6.25;;;0.98;;
18259;SDS011;9256;52.236;5.712;2024-03-23T13:29:36;4.47;;;0.70;;
18259;SDS011;9256;52.236;5.712;2024-03-23T13:32:03;4.68;;;0.70;;
18259;SDS011;9256;52.236;5.712;2024-03-23T13:34:31;6.10;;;1.13;;
18259;SDS011;9256;52.236;5.712;2024-03-23T13:36:58;6.38;;;0.93;;
18259;SDS011;9256;52.236;5.712;2024-03-23T13:39:25;5.75;;;1.23;;
18259;SDS011;9256;52.236;5.712;2024-03-23T13:41:52;8.00;;;1.20;;
18259;SDS011;9256;52.236;5.712;2024-03-23T13:44:20;8.35;;;1.20;;
18259;SDS011;9256;52.236;5.712;2024-03-23T13:46:47;9.73;;;1.43;;
18259;SDS011;9256;52.236;5.712;2024-03-23T13:49:20;8.82;;;1.38;;
18259;SDS011;9256;52.236;5.712;2024-03-23T13:51:52;8.13;;;1.30;;
18259;SDS011;9256;52.236;5.712;2024-03-23T13:54:19;6.90;;;1.30;;
18259;SDS011;9256;52.236;5.712;2024-03-23T13:56:47;7.70;;;1.40;;
18259;SDS011;9256;52.236;5.712;2024-03-23T13:59:15;5.75;;;1.30;;
18259;SDS011;9256;52.236;5.712;2024-03-23T14:01:42;6.00;;;1.17;;
18259;SDS011;9256;52.236;5.712;2024-03-23T14:04:10;8.20;;;1.58;;
18259;SDS011;9256;52.236;5.712;2024-03-23T14:06:36;5.47;;;1.10;;
18259;SDS011;9256;52.236;5.712;2024-03-23T14:09:04;9.85;;;1.50;;
18259;SDS011;9256;52.236;5.712;2024-03-23T14:11:33;7.10;;;1.10;;
18259;SDS011;9256;52.236;5.712;2024-03-23T14:14:01;9.20;;;1.75;;
18259;SDS011;9256;52.236;5.712;2024-03-23T14:16:28;5.47;;;1.02;;
18259;SDS011;9256;52.236;5.712;2024-03-23T14:18:55;9.70;;;1.30;;
18259;SDS011;9256;52.236;5.712;2024-03-23T14:21:21;7.65;;;0.93;;
18259;SDS011;9256;52.236;5.712;2024-03-23T14:23:48;6.90;;;0.90;;
18259;SDS011;9256;52.236;5.712;2024-03-23T14:26:16;5.65;;;0.90;;
18259;SDS011;9256;52.236;5.712;2024-03-23T14:28:43;5.15;;;0.82;;
18259;SDS011;9256;52.236;5.712;2024-03-23T14:31:09;4.45;;;0.90;;
18259;SDS011;9256;52.236;5.712;2024-03-23T14:33:36;8.63;;;1.00;;
18259;SDS011;9256;52.236;5.712;2024-03-23T14:36:03;7.72;;;1.20;;
18259;SDS011;9256;52.236;5.712;2024-03-23T14:38:30;8.20;;;1.15;;
18259;SDS011;9256;52.236;5.712;2024-03-23T14:40:57;5.75;;;1.00;;
18259;SDS011;9256;52.236;5.712;2024-03-23T14:43:26;4.43;;;0.90;;
18259;SDS011;9256;52.236;5.712;2024-03-23T14:46:08;8.32;;;1.20;;
18259;SDS011;9256;52.236;5.712;2024-03-23T14:48:36;8.50;;;1.10;;
18259;SDS011;9256;52.236;5.712;2024-03-23T14:51:02;7.50;;;1.35;;
18259;SDS011;9256;52.236;5.712;2024-03-23T14:53:30;6.00;;;1.30;;
18259;SDS011;9256;52.236;5.712;2024-03-23T14:55:56;6.88;;;1.30;;
18259;SDS011;9256;52.236;5.712;2024-03-23T14:58:25;5.07;;;1.02;;
18259;SDS011;9256;52.236;5.712;2024-03-23T15:00:52;7.30;;;1.83;;
18259;SDS011;9256;52.236;5.712;2024-03-23T15:03:19;9.85;;;1.42;;
18259;SDS011;9256;52.236;5.712;2024-03-23T15:05:51;9.63;;;1.27;;
18259;SDS011;9256;52.236;5.712;2024-03-23T15:08:19;9.35;;;1.40;;
18259;SDS011;9256;52.236;5.712;2024-03-23T15:10:45;7.93;;;1.42;;
18259;SDS011;9256;52.236;5.712;2024-03-23T15:13:11;10.10;;;1.25;;
18259;SDS011;9256;52.236;5.712;2024-03-23T15:15:39;6.18;;;1.10;;
18259;SDS011;9256;52.236;5.712;2024-03-23T15:18:08;7.70;;;1.40;;
18259;SDS011;9256;52.236;5.712;2024-03-23T15:20:34;9.65;;;1.23;;
18259;SDS011;9256;52.236;5.712;2024-03-23T15:23:02;7.32;;;1.40;;
18259;SDS011;9256;52.236;5.712;2024-03-23T15:25:28;4.95;;;1.00;;
18259;SDS011;9256;52.236;5.712;2024-03-23T15:27:55;6.35;;;1.05;;
18259;SDS011;9256;52.236;5.712;2024-03-23T15:30:22;5.55;;;1.20;;
18259;SDS011;9256;52.236;5.712;2024-03-23T15:32:51;6.20;;;1.20;;
18259;SDS011;9256;52.236;5.712;2024-03-23T15:35:17;10.45;;;1.20;;
18259;SDS011;9256;52.236;5.712;2024-03-23T15:37:44;9.55;;;1.52;;
18259;SDS011;9256;52.236;5.712;2024-03-23T15:40:10;5.85;;;1.60;;
18259;SDS011;9256;52.236;5.712;2024-03-23T15:42:38;9.77;;;1.55;;
18259;SDS011;9256;52.236;5.712;2024-03-23T15:45:05;5.10;;;1.35;;
18259;SDS011;9256;52.236;5.712;2024-03-23T15:47:34;13.35;;;1.55;;